Terminal Aerodrome Forecast
Issued by NWS

Home | Current Version | Previous Version | Text Only | Print | Product List | Glossary On
Versions: 1 2 3 4 5 6 7 8 9 10 11 12 13 14 15 16 17 18 19 20 21
000
FTUS46 KLOX 291856 AAA
TAFOXR
TAF AMD
KOXR 291856Z 2919/3018 27014KT P6SM SKC
     FM292100 27015G20KT P6SM SKC
     FM300400 VRB03KT P6SM SKC
     FM301000 06006KT P6SM SKC=

USA.gov is the U.S. government's official web portal to all federal, state and local government web resources and services.